sensor_id;sensor_type;location;lat;lon;timestamp;P1;durP1;ratioP1;P2;durP2;ratioP2
8626;SDS011;4351;51.422;6.794;2024-01-30T00:01:41;11.77;;;7.37;;
8626;SDS011;4351;51.422;6.794;2024-01-30T00:04:09;12.80;;;7.50;;
8626;SDS011;4351;51.422;6.794;2024-01-30T00:06:38;9.73;;;7.50;;
8626;SDS011;4351;51.422;6.794;2024-01-30T00:09:06;10.13;;;7.63;;
8626;SDS011;4351;51.422;6.794;2024-01-30T00:11:34;9.10;;;6.93;;
8626;SDS011;4351;51.422;6.794;2024-01-30T00:14:02;9.40;;;7.47;;
8626;SDS011;4351;51.422;6.794;2024-01-30T00:16:30;10.63;;;7.77;;
8626;SDS011;4351;51.422;6.794;2024-01-30T00:18:58;12.27;;;7.67;;
8626;SDS011;4351;51.422;6.794;2024-01-30T00:21:26;11.57;;;8.40;;
8626;SDS011;4351;51.422;6.794;2024-01-30T00:23:55;11.83;;;7.70;;
8626;SDS011;4351;51.422;6.794;2024-01-30T00:26:22;12.47;;;7.80;;
8626;SDS011;4351;51.422;6.794;2024-01-30T00:28:50;12.47;;;7.90;;
8626;SDS011;4351;51.422;6.794;2024-01-30T00:31:18;12.17;;;7.70;;
8626;SDS011;4351;51.422;6.794;2024-01-30T00:33:46;14.90;;;8.30;;
8626;SDS011;4351;51.422;6.794;2024-01-30T00:36:14;13.00;;;7.90;;
8626;SDS011;4351;51.422;6.794;2024-01-30T00:38:41;13.40;;;8.07;;
8626;SDS011;4351;51.422;6.794;2024-01-30T00:41:10;10.03;;;7.33;;
8626;SDS011;4351;51.422;6.794;2024-01-30T00:43:38;13.37;;;7.97;;
8626;SDS011;4351;51.422;6.794;2024-01-30T00:46:06;16.47;;;8.33;;
8626;SDS011;4351;51.422;6.794;2024-01-30T00:48:34;11.60;;;8.07;;
8626;SDS011;4351;51.422;6.794;2024-01-30T00:51:02;11.07;;;8.10;;
8626;SDS011;4351;51.422;6.794;2024-01-30T00:53:30;13.97;;;8.37;;
8626;SDS011;4351;51.422;6.794;2024-01-30T00:55:58;13.30;;;7.83;;
8626;SDS011;4351;51.422;6.794;2024-01-30T00:58:28;13.53;;;8.23;;
8626;SDS011;4351;51.422;6.794;2024-01-30T01:00:55;13.60;;;8.13;;
8626;SDS011;4351;51.422;6.794;2024-01-30T01:03:23;12.27;;;7.90;;
8626;SDS011;4351;51.422;6.794;2024-01-30T01:05:51;12.20;;;8.23;;
8626;SDS011;4351;51.422;6.794;2024-01-30T01:08:19;11.77;;;7.73;;
8626;SDS011;4351;51.422;6.794;2024-01-30T01:10:46;11.80;;;7.43;;
8626;SDS011;4351;51.422;6.794;2024-01-30T01:13:14;11.87;;;8.13;;
8626;SDS011;4351;51.422;6.794;2024-01-30T01:15:43;14.03;;;8.60;;
8626;SDS011;4351;51.422;6.794;2024-01-30T01:18:11;12.20;;;8.53;;
8626;SDS011;4351;51.422;6.794;2024-01-30T01:20:39;12.30;;;8.23;;
8626;SDS011;4351;51.422;6.794;2024-01-30T01:23:07;12.63;;;8.33;;
8626;SDS011;4351;51.422;6.794;2024-01-30T01:25:34;13.07;;;8.90;;
8626;SDS011;4351;51.422;6.794;2024-01-30T01:28:02;11.77;;;8.03;;
8626;SDS011;4351;51.422;6.794;2024-01-30T01:30:30;11.57;;;8.17;;
8626;SDS011;4351;51.422;6.794;2024-01-30T01:32:59;13.47;;;8.20;;
8626;SDS011;4351;51.422;6.794;2024-01-30T01:35:29;15.40;;;9.13;;
8626;SDS011;4351;51.422;6.794;2024-01-30T01:37:57;14.27;;;8.90;;
8626;SDS011;4351;51.422;6.794;2024-01-30T01:40:26;13.20;;;8.27;;
8626;SDS011;4351;51.422;6.794;2024-01-30T01:42:55;12.00;;;8.77;;
8626;SDS011;4351;51.422;6.794;2024-01-30T01:45:23;14.13;;;8.50;;
8626;SDS011;4351;51.422;6.794;2024-01-30T01:47:51;14.87;;;8.73;;
8626;SDS011;4351;51.422;6.794;2024-01-30T01:50:20;14.57;;;8.60;;
8626;SDS011;4351;51.422;6.794;2024-01-30T01:52:49;12.03;;;8.43;;
8626;SDS011;4351;51.422;6.794;2024-01-30T01:55:18;16.23;;;8.80;;
8626;SDS011;4351;51.422;6.794;2024-01-30T01:57:48;12.70;;;8.53;;
8626;SDS011;4351;51.422;6.794;2024-01-30T02:00:16;12.63;;;8.43;;
8626;SDS011;4351;51.422;6.794;2024-01-30T02:02:44;12.13;;;9.37;;
8626;SDS011;4351;51.422;6.794;2024-01-30T02:05:13;12.40;;;8.20;;
8626;SDS011;4351;51.422;6.794;2024-01-30T02:07:43;15.80;;;8.97;;
8626;SDS011;4351;51.422;6.794;2024-01-30T02:10:11;15.30;;;8.53;;
8626;SDS011;4351;51.422;6.794;2024-01-30T02:12:39;14.93;;;8.47;;
8626;SDS011;4351;51.422;6.794;2024-01-30T02:15:07;12.27;;;8.57;;
8626;SDS011;4351;51.422;6.794;2024-01-30T02:17:35;11.97;;;7.83;;
8626;SDS011;4351;51.422;6.794;2024-01-30T02:20:03;13.30;;;8.77;;
8626;SDS011;4351;51.422;6.794;2024-01-30T02:22:33;11.17;;;8.07;;
8626;SDS011;4351;51.422;6.794;2024-01-30T02:25:02;10.90;;;8.03;;
8626;SDS011;4351;51.422;6.794;2024-01-30T02:27:30;12.50;;;8.33;;
8626;SDS011;4351;51.422;6.794;2024-01-30T02:29:58;14.57;;;8.73;;
8626;SDS011;4351;51.422;6.794;2024-01-30T02:32:25;14.00;;;8.87;;
8626;SDS011;4351;51.422;6.794;2024-01-30T02:34:53;12.57;;;8.40;;
8626;SDS011;4351;51.422;6.794;2024-01-30T02:37:21;13.53;;;8.10;;
8626;SDS011;4351;51.422;6.794;2024-01-30T02:39:50;15.13;;;9.00;;
8626;SDS011;4351;51.422;6.794;2024-01-30T02:42:17;13.30;;;8.53;;
8626;SDS011;4351;51.422;6.794;2024-01-30T02:44:45;15.93;;;9.20;;
8626;SDS011;4351;51.422;6.794;2024-01-30T02:47:13;14.37;;;8.43;;
8626;SDS011;4351;51.422;6.794;2024-01-30T02:49:41;12.77;;;8.23;;
8626;SDS011;4351;51.422;6.794;2024-01-30T02:52:08;13.97;;;8.53;;
8626;SDS011;4351;51.422;6.794;2024-01-30T02:54:36;10.97;;;8.33;;
8626;SDS011;4351;51.422;6.794;2024-01-30T02:57:05;12.20;;;8.20;;
8626;SDS011;4351;51.422;6.794;2024-01-30T02:59:33;13.07;;;8.40;;
8626;SDS011;4351;51.422;6.794;2024-01-30T03:02:02;12.90;;;8.70;;
8626;SDS011;4351;51.422;6.794;2024-01-30T03:04:30;15.27;;;8.60;;
8626;SDS011;4351;51.422;6.794;2024-01-30T03:06:58;13.37;;;7.97;;
8626;SDS011;4351;51.422;6.794;2024-01-30T03:09:26;11.57;;;8.00;;
8626;SDS011;4351;51.422;6.794;2024-01-30T03:11:53;14.43;;;7.87;;
8626;SDS011;4351;51.422;6.794;2024-01-30T03:14:22;12.77;;;8.17;;
8626;SDS011;4351;51.422;6.794;2024-01-30T03:16:50;12.37;;;8.60;;
8626;SDS011;4351;51.422;6.794;2024-01-30T03:19:20;11.57;;;8.07;;
8626;SDS011;4351;51.422;6.794;2024-01-30T03:21:47;12.97;;;8.60;;
8626;SDS011;4351;51.422;6.794;2024-01-30T03:24:15;11.83;;;8.03;;
8626;SDS011;4351;51.422;6.794;2024-01-30T03:26:43;12.50;;;7.93;;
8626;SDS011;4351;51.422;6.794;2024-01-30T03:29:11;9.50;;;7.33;;
8626;SDS011;4351;51.422;6.794;2024-01-30T03:31:40;13.57;;;7.83;;
8626;SDS011;4351;51.422;6.794;2024-01-30T03:34:08;9.97;;;7.43;;
8626;SDS011;4351;51.422;6.794;2024-01-30T03:36:36;10.57;;;7.90;;
8626;SDS011;4351;51.422;6.794;2024-01-30T03:39:04;13.77;;;7.97;;
8626;SDS011;4351;51.422;6.794;2024-01-30T03:41:32;12.80;;;7.70;;
8626;SDS011;4351;51.422;6.794;2024-01-30T03:44:00;11.43;;;8.07;;
8626;SDS011;4351;51.422;6.794;2024-01-30T03:46:28;13.80;;;8.00;;
8626;SDS011;4351;51.422;6.794;2024-01-30T03:48:57;12.33;;;7.80;;
8626;SDS011;4351;51.422;6.794;2024-01-30T03:51:25;14.43;;;8.00;;
8626;SDS011;4351;51.422;6.794;2024-01-30T03:53:53;12.70;;;7.63;;
8626;SDS011;4351;51.422;6.794;2024-01-30T03:56:20;11.20;;;7.53;;
8626;SDS011;4351;51.422;6.794;2024-01-30T03:58:48;12.20;;;7.63;;
8626;SDS011;4351;51.422;6.794;2024-01-30T04:01:16;13.03;;;7.43;;
8626;SDS011;4351;51.422;6.794;2024-01-30T04:03:44;16.83;;;7.90;;
8626;SDS011;4351;51.422;6.794;2024-01-30T04:06:13;12.33;;;7.77;;
8626;SDS011;4351;51.422;6.794;2024-01-30T04:08:41;12.03;;;7.50;;
8626;SDS011;4351;51.422;6.794;2024-01-30T04:11:09;10.17;;;7.67;;
8626;SDS011;4351;51.422;6.794;2024-01-30T04:13:36;10.87;;;7.50;;
8626;SDS011;4351;51.422;6.794;2024-01-30T04:16:05;13.03;;;7.90;;
8626;SDS011;4351;51.422;6.794;2024-01-30T04:18:33;13.20;;;7.67;;
8626;SDS011;4351;51.422;6.794;2024-01-30T04:21:00;9.83;;;7.07;;
8626;SDS011;4351;51.422;6.794;2024-01-30T04:23:29;11.53;;;7.70;;
8626;SDS011;4351;51.422;6.794;2024-01-30T04:25:57;16.33;;;7.60;;
8626;SDS011;4351;51.422;6.794;2024-01-30T04:28:25;13.00;;;7.73;;
8626;SDS011;4351;51.422;6.794;2024-01-30T04:30:53;10.87;;;7.23;;
8626;SDS011;4351;51.422;6.794;2024-01-30T04:33:21;11.40;;;7.23;;
8626;SDS011;4351;51.422;6.794;2024-01-30T04:35:48;10.13;;;7.57;;
8626;SDS011;4351;51.422;6.794;2024-01-30T04:38:16;10.57;;;7.30;;
8626;SDS011;4351;51.422;6.794;2024-01-30T04:40:45;11.83;;;7.47;;
8626;SDS011;4351;51.422;6.794;2024-01-30T04:43:13;10.03;;;7.03;;
8626;SDS011;4351;51.422;6.794;2024-01-30T04:45:41;9.83;;;7.30;;
8626;SDS011;4351;51.422;6.794;2024-01-30T04:48:08;13.10;;;7.73;;
8626;SDS011;4351;51.422;6.794;2024-01-30T04:50:36;11.33;;;8.07;;
8626;SDS011;4351;51.422;6.794;2024-01-30T04:53:03;11.20;;;8.00;;
8626;SDS011;4351;51.422;6.794;2024-01-30T04:55:31;11.90;;;7.60;;
8626;SDS011;4351;51.422;6.794;2024-01-30T04:58:00;11.87;;;7.37;;
8626;SDS011;4351;51.422;6.794;2024-01-30T05:00:28;10.97;;;7.67;;
8626;SDS011;4351;51.422;6.794;2024-01-30T05:02:55;13.60;;;7.60;;
8626;SDS011;4351;51.422;6.794;2024-01-30T05:05:23;12.60;;;7.80;;
8626;SDS011;4351;51.422;6.794;2024-01-30T05:07:51;11.43;;;7.37;;
8626;SDS011;4351;51.422;6.794;2024-01-30T05:10:19;12.30;;;7.47;;
8626;SDS011;4351;51.422;6.794;2024-01-30T05:12:47;14.67;;;7.70;;
8626;SDS011;4351;51.422;6.794;2024-01-30T05:15:16;9.80;;;7.17;;
8626;SDS011;4351;51.422;6.794;2024-01-30T05:17:44;10.33;;;7.03;;
8626;SDS011;4351;51.422;6.794;2024-01-30T05:20:12;10.37;;;7.33;;
8626;SDS011;4351;51.422;6.794;2024-01-30T05:22:40;12.70;;;7.57;;
8626;SDS011;4351;51.422;6.794;2024-01-30T05:25:12;10.70;;;7.23;;
8626;SDS011;4351;51.422;6.794;2024-01-30T05:27:39;9.70;;;7.07;;
8626;SDS011;4351;51.422;6.794;2024-01-30T05:30:07;13.23;;;7.10;;
8626;SDS011;4351;51.422;6.794;2024-01-30T05:32:37;9.10;;;6.90;;
8626;SDS011;4351;51.422;6.794;2024-01-30T05:35:04;13.90;;;7.30;;
8626;SDS011;4351;51.422;6.794;2024-01-30T05:37:34;10.63;;;7.53;;
8626;SDS011;4351;51.422;6.794;2024-01-30T05:40:02;10.37;;;7.43;;
8626;SDS011;4351;51.422;6.794;2024-01-30T05:42:30;10.53;;;7.30;;
8626;SDS011;4351;51.422;6.794;2024-01-30T05:44:57;10.50;;;7.30;;
8626;SDS011;4351;51.422;6.794;2024-01-30T05:47:25;8.83;;;6.83;;
8626;SDS011;4351;51.422;6.794;2024-01-30T05:49:54;13.40;;;7.40;;
8626;SDS011;4351;51.422;6.794;2024-01-30T05:52:22;12.03;;;7.97;;
8626;SDS011;4351;51.422;6.794;2024-01-30T05:54:50;12.63;;;7.60;;
8626;SDS011;4351;51.422;6.794;2024-01-30T05:57:18;13.50;;;7.63;;
8626;SDS011;4351;51.422;6.794;2024-01-30T05:59:45;11.03;;;7.60;;
8626;SDS011;4351;51.422;6.794;2024-01-30T06:02:14;12.27;;;7.60;;
8626;SDS011;4351;51.422;6.794;2024-01-30T06:04:42;10.87;;;6.93;;
8626;SDS011;4351;51.422;6.794;2024-01-30T06:07:12;9.83;;;7.27;;
8626;SDS011;4351;51.422;6.794;2024-01-30T06:09:40;10.90;;;7.23;;
8626;SDS011;4351;51.422;6.794;2024-01-30T06:12:08;13.83;;;7.70;;
8626;SDS011;4351;51.422;6.794;2024-01-30T06:14:38;16.33;;;8.60;;
8626;SDS011;4351;51.422;6.794;2024-01-30T06:17:08;12.40;;;7.70;;
8626;SDS011;4351;51.422;6.794;2024-01-30T06:19:36;13.93;;;7.27;;
8626;SDS011;4351;51.422;6.794;2024-01-30T06:22:04;12.47;;;7.47;;
8626;SDS011;4351;51.422;6.794;2024-01-30T06:24:33;11.67;;;7.23;;
8626;SDS011;4351;51.422;6.794;2024-01-30T06:27:01;11.97;;;7.50;;
8626;SDS011;4351;51.422;6.794;2024-01-30T06:29:29;10.23;;;7.50;;
8626;SDS011;4351;51.422;6.794;2024-01-30T06:31:57;12.20;;;7.03;;
8626;SDS011;4351;51.422;6.794;2024-01-30T06:34:24;11.53;;;6.87;;
8626;SDS011;4351;51.422;6.794;2024-01-30T06:36:53;10.53;;;7.53;;
8626;SDS011;4351;51.422;6.794;2024-01-30T06:39:21;11.93;;;7.40;;
8626;SDS011;4351;51.422;6.794;2024-01-30T06:41:51;11.60;;;7.70;;
8626;SDS011;4351;51.422;6.794;2024-01-30T06:44:18;14.73;;;7.37;;
8626;SDS011;4351;51.422;6.794;2024-01-30T06:46:46;15.23;;;7.60;;
8626;SDS011;4351;51.422;6.794;2024-01-30T06:49:14;14.27;;;7.23;;
8626;SDS011;4351;51.422;6.794;2024-01-30T06:51:42;10.57;;;7.07;;
8626;SDS011;4351;51.422;6.794;2024-01-30T06:54:09;11.30;;;7.13;;
8626;SDS011;4351;51.422;6.794;2024-01-30T06:56:37;10.80;;;6.90;;
8626;SDS011;4351;51.422;6.794;2024-01-30T06:59:06;13.13;;;7.30;;
8626;SDS011;4351;51.422;6.794;2024-01-30T07:01:34;12.03;;;7.00;;
8626;SDS011;4351;51.422;6.794;2024-01-30T07:04:03;10.80;;;7.30;;
8626;SDS011;4351;51.422;6.794;2024-01-30T07:06:31;12.90;;;7.20;;
8626;SDS011;4351;51.422;6.794;2024-01-30T07:08:58;11.73;;;7.40;;
8626;SDS011;4351;51.422;6.794;2024-01-30T07:11:26;10.30;;;7.13;;
8626;SDS011;4351;51.422;6.794;2024-01-30T07:13:55;11.13;;;6.90;;
8626;SDS011;4351;51.422;6.794;2024-01-30T07:16:24;12.83;;;8.03;;
8626;SDS011;4351;51.422;6.794;2024-01-30T07:18:53;11.37;;;6.80;;
8626;SDS011;4351;51.422;6.794;2024-01-30T07:21:20;13.07;;;7.00;;
8626;SDS011;4351;51.422;6.794;2024-01-30T07:23:54;11.93;;;7.23;;
8626;SDS011;4351;51.422;6.794;2024-01-30T07:26:21;13.77;;;7.43;;
8626;SDS011;4351;51.422;6.794;2024-01-30T07:28:49;11.03;;;7.20;;
8626;SDS011;4351;51.422;6.794;2024-01-30T07:31:17;12.70;;;7.80;;
8626;SDS011;4351;51.422;6.794;2024-01-30T07:33:48;11.73;;;7.20;;
8626;SDS011;4351;51.422;6.794;2024-01-30T07:36:16;10.83;;;7.30;;
8626;SDS011;4351;51.422;6.794;2024-01-30T07:38:44;10.70;;;6.93;;
8626;SDS011;4351;51.422;6.794;2024-01-30T07:41:11;13.07;;;7.70;;
8626;SDS011;4351;51.422;6.794;2024-01-30T07:43:39;9.40;;;7.30;;
8626;SDS011;4351;51.422;6.794;2024-01-30T07:46:07;9.20;;;6.80;;
8626;SDS011;4351;51.422;6.794;2024-01-30T07:48:35;12.70;;;7.27;;
8626;SDS011;4351;51.422;6.794;2024-01-30T07:51:04;9.83;;;6.83;;
8626;SDS011;4351;51.422;6.794;2024-01-30T07:53:32;10.30;;;7.13;;
8626;SDS011;4351;51.422;6.794;2024-01-30T07:55:59;13.33;;;6.87;;
8626;SDS011;4351;51.422;6.794;2024-01-30T07:58:27;13.70;;;6.83;;
8626;SDS011;4351;51.422;6.794;2024-01-30T08:00:55;11.67;;;7.30;;
8626;SDS011;4351;51.422;6.794;2024-01-30T08:03:25;9.93;;;7.20;;
8626;SDS011;4351;51.422;6.794;2024-01-30T08:05:52;11.83;;;7.17;;
8626;SDS011;4351;51.422;6.794;2024-01-30T08:08:22;12.70;;;6.93;;
8626;SDS011;4351;51.422;6.794;2024-01-30T08:10:50;11.37;;;7.37;;
8626;SDS011;4351;51.422;6.794;2024-01-30T08:13:17;10.50;;;7.00;;
8626;SDS011;4351;51.422;6.794;2024-01-30T08:15:45;13.37;;;7.43;;
8626;SDS011;4351;51.422;6.794;2024-01-30T08:18:13;9.83;;;6.67;;
8626;SDS011;4351;51.422;6.794;2024-01-30T08:20:41;11.10;;;6.87;;
8626;SDS011;4351;51.422;6.794;2024-01-30T08:23:09;13.70;;;7.10;;
8626;SDS011;4351;51.422;6.794;2024-01-30T08:25:38;15.70;;;7.30;;
8626;SDS011;4351;51.422;6.794;2024-01-30T08:28:06;15.07;;;7.63;;
8626;SDS011;4351;51.422;6.794;2024-01-30T08:30:34;8.77;;;6.63;;
8626;SDS011;4351;51.422;6.794;2024-01-30T08:33:02;12.30;;;6.90;;
8626;SDS011;4351;51.422;6.794;2024-01-30T08:35:30;12.03;;;6.70;;
8626;SDS011;4351;51.422;6.794;2024-01-30T08:38:00;10.33;;;7.20;;
8626;SDS011;4351;51.422;6.794;2024-01-30T08:40:28;9.43;;;6.70;;
8626;SDS011;4351;51.422;6.794;2024-01-30T08:42:57;9.77;;;6.70;;
8626;SDS011;4351;51.422;6.794;2024-01-30T08:45:25;10.53;;;6.63;;
8626;SDS011;4351;51.422;6.794;2024-01-30T08:47:53;9.47;;;6.37;;
8626;SDS011;4351;51.422;6.794;2024-01-30T08:50:20;11.43;;;6.93;;
8626;SDS011;4351;51.422;6.794;2024-01-30T08:52:48;14.10;;;7.00;;
8626;SDS011;4351;51.422;6.794;2024-01-30T08:55:16;12.83;;;7.10;;
8626;SDS011;4351;51.422;6.794;2024-01-30T08:57:44;9.47;;;6.40;;
8626;SDS011;4351;51.422;6.794;2024-01-30T09:00:14;9.57;;;6.83;;
8626;SDS011;4351;51.422;6.794;2024-01-30T09:02:42;12.73;;;7.13;;
8626;SDS011;4351;51.422;6.794;2024-01-30T09:05:10;12.80;;;6.87;;
8626;SDS011;4351;51.422;6.794;2024-01-30T09:07:38;10.47;;;6.47;;
8626;SDS011;4351;51.422;6.794;2024-01-30T09:10:06;10.90;;;6.80;;
8626;SDS011;4351;51.422;6.794;2024-01-30T09:12:38;14.10;;;7.57;;
8626;SDS011;4351;51.422;6.794;2024-01-30T09:15:06;10.73;;;7.00;;
8626;SDS011;4351;51.422;6.794;2024-01-30T09:17:35;9.67;;;6.60;;
8626;SDS011;4351;51.422;6.794;2024-01-30T09:20:03;10.27;;;6.20;;
8626;SDS011;4351;51.422;6.794;2024-01-30T09:22:31;10.10;;;7.00;;
8626;SDS011;4351;51.422;6.794;2024-01-30T09:24:59;11.13;;;7.00;;
8626;SDS011;4351;51.422;6.794;2024-01-30T09:27:27;9.77;;;6.63;;
8626;SDS011;4351;51.422;6.794;2024-01-30T09:29:54;11.13;;;6.47;;
8626;SDS011;4351;51.422;6.794;2024-01-30T09:32:22;12.13;;;6.97;;
8626;SDS011;4351;51.422;6.794;2024-01-30T09:34:51;11.53;;;7.07;;
8626;SDS011;4351;51.422;6.794;2024-01-30T09:37:19;11.43;;;6.77;;
8626;SDS011;4351;51.422;6.794;2024-01-30T09:39:49;10.17;;;6.50;;
8626;SDS011;4351;51.422;6.794;2024-01-30T09:42:18;9.80;;;6.80;;
8626;SDS011;4351;51.422;6.794;2024-01-30T09:44:47;9.53;;;6.93;;
8626;SDS011;4351;51.422;6.794;2024-01-30T09:47:18;12.10;;;6.90;;
8626;SDS011;4351;51.422;6.794;2024-01-30T09:49:45;16.93;;;7.00;;
8626;SDS011;4351;51.422;6.794;2024-01-30T09:52:14;11.70;;;6.87;;
8626;SDS011;4351;51.422;6.794;2024-01-30T09:54:42;11.67;;;6.90;;
8626;SDS011;4351;51.422;6.794;2024-01-30T09:57:11;10.77;;;6.93;;
8626;SDS011;4351;51.422;6.794;2024-01-30T09:59:41;10.30;;;6.63;;
8626;SDS011;4351;51.422;6.794;2024-01-30T10:02:09;10.87;;;7.63;;
8626;SDS011;4351;51.422;6.794;2024-01-30T10:04:37;10.27;;;6.77;;
8626;SDS011;4351;51.422;6.794;2024-01-30T10:07:05;9.13;;;6.33;;
8626;SDS011;4351;51.422;6.794;2024-01-30T10:09:36;10.10;;;6.87;;
8626;SDS011;4351;51.422;6.794;2024-01-30T10:12:04;12.43;;;6.93;;
8626;SDS011;4351;51.422;6.794;2024-01-30T10:14:34;11.27;;;6.80;;
8626;SDS011;4351;51.422;6.794;2024-01-30T10:17:02;10.73;;;6.57;;
8626;SDS011;4351;51.422;6.794;2024-01-30T10:19:40;11.57;;;6.30;;
8626;SDS011;4351;51.422;6.794;2024-01-30T10:22:09;11.97;;;6.77;;
8626;SDS011;4351;51.422;6.794;2024-01-30T10:24:38;11.27;;;6.83;;
8626;SDS011;4351;51.422;6.794;2024-01-30T10:27:06;10.70;;;6.67;;
8626;SDS011;4351;51.422;6.794;2024-01-30T10:29:34;11.93;;;6.87;;
8626;SDS011;4351;51.422;6.794;2024-01-30T10:32:02;9.83;;;6.73;;
8626;SDS011;4351;51.422;6.794;2024-01-30T10:34:30;10.10;;;6.70;;
8626;SDS011;4351;51.422;6.794;2024-01-30T10:36:59;13.33;;;7.27;;
8626;SDS011;4351;51.422;6.794;2024-01-30T10:39:29;13.60;;;7.20;;
8626;SDS011;4351;51.422;6.794;2024-01-30T10:41:58;11.73;;;7.50;;
8626;SDS011;4351;51.422;6.794;2024-01-30T10:44:29;11.53;;;7.37;;
8626;SDS011;4351;51.422;6.794;2024-01-30T10:47:00;12.60;;;7.70;;
8626;SDS011;4351;51.422;6.794;2024-01-30T10:49:29;14.17;;;8.03;;
8626;SDS011;4351;51.422;6.794;2024-01-30T10:51:57;12.10;;;7.60;;
8626;SDS011;4351;51.422;6.794;2024-01-30T10:54:26;14.77;;;8.10;;
8626;SDS011;4351;51.422;6.794;2024-01-30T10:56:54;12.37;;;8.17;;
8626;SDS011;4351;51.422;6.794;2024-01-30T10:59:23;16.87;;;8.07;;
8626;SDS011;4351;51.422;6.794;2024-01-30T11:01:51;14.63;;;8.27;;
8626;SDS011;4351;51.422;6.794;2024-01-30T11:04:19;10.87;;;7.43;;
8626;SDS011;4351;51.422;6.794;2024-01-30T11:06:48;10.93;;;7.37;;
8626;SDS011;4351;51.422;6.794;2024-01-30T11:09:17;12.10;;;8.00;;
8626;SDS011;4351;51.422;6.794;2024-01-30T11:11:49;14.40;;;7.77;;
8626;SDS011;4351;51.422;6.794;2024-01-30T11:14:23;11.67;;;7.77;;
8626;SDS011;4351;51.422;6.794;2024-01-30T11:16:52;13.60;;;7.73;;
8626;SDS011;4351;51.422;6.794;2024-01-30T11:19:23;13.77;;;8.10;;
8626;SDS011;4351;51.422;6.794;2024-01-30T11:21:52;12.13;;;8.07;;
8626;SDS011;4351;51.422;6.794;2024-01-30T11:24:20;16.27;;;8.53;;
8626;SDS011;4351;51.422;6.794;2024-01-30T11:26:48;14.70;;;8.33;;
8626;SDS011;4351;51.422;6.794;2024-01-30T11:29:17;13.40;;;7.67;;
8626;SDS011;4351;51.422;6.794;2024-01-30T11:31:53;13.50;;;7.73;;
8626;SDS011;4351;51.422;6.794;2024-01-30T11:34:20;13.77;;;8.47;;
8626;SDS011;4351;51.422;6.794;2024-01-30T11:36:51;13.10;;;8.77;;
8626;SDS011;4351;51.422;6.794;2024-01-30T11:39:21;11.03;;;7.70;;
8626;SDS011;4351;51.422;6.794;2024-01-30T11:41:50;10.60;;;7.70;;
8626;SDS011;4351;51.422;6.794;2024-01-30T11:44:18;10.47;;;7.70;;
8626;SDS011;4351;51.422;6.794;2024-01-30T11:46:47;13.13;;;8.10;;
8626;SDS011;4351;51.422;6.794;2024-01-30T11:49:16;12.57;;;8.07;;
8626;SDS011;4351;51.422;6.794;2024-01-30T11:51:45;14.83;;;7.93;;
8626;SDS011;4351;51.422;6.794;2024-01-30T11:54:15;16.67;;;8.13;;
8626;SDS011;4351;51.422;6.794;2024-01-30T11:56:43;15.00;;;7.87;;
8626;SDS011;4351;51.422;6.794;2024-01-30T11:59:10;14.33;;;8.27;;
8626;SDS011;4351;51.422;6.794;2024-01-30T12:01:38;12.00;;;7.53;;
8626;SDS011;4351;51.422;6.794;2024-01-30T12:04:07;12.67;;;8.13;;
8626;SDS011;4351;51.422;6.794;2024-01-30T12:06:38;13.07;;;7.93;;
8626;SDS011;4351;51.422;6.794;2024-01-30T12:09:07;14.17;;;8.50;;
8626;SDS011;4351;51.422;6.794;2024-01-30T12:11:43;20.83;;;8.10;;
8626;SDS011;4351;51.422;6.794;2024-01-30T12:14:11;11.33;;;8.00;;
8626;SDS011;4351;51.422;6.794;2024-01-30T12:16:39;15.13;;;8.00;;
8626;SDS011;4351;51.422;6.794;2024-01-30T12:19:07;18.10;;;7.93;;
8626;SDS011;4351;51.422;6.794;2024-01-30T12:21:37;12.20;;;8.07;;
8626;SDS011;4351;51.422;6.794;2024-01-30T12:24:07;14.47;;;8.63;;
8626;SDS011;4351;51.422;6.794;2024-01-30T12:26:34;12.40;;;7.60;;
8626;SDS011;4351;51.422;6.794;2024-01-30T12:29:03;12.63;;;8.03;;
8626;SDS011;4351;51.422;6.794;2024-01-30T12:31:31;13.47;;;7.97;;
8626;SDS011;4351;51.422;6.794;2024-01-30T12:34:00;14.40;;;7.83;;
8626;SDS011;4351;51.422;6.794;2024-01-30T12:36:29;14.50;;;7.53;;
8626;SDS011;4351;51.422;6.794;2024-01-30T12:38:57;11.03;;;7.70;;
8626;SDS011;4351;51.422;6.794;2024-01-30T12:41:26;13.23;;;7.47;;
8626;SDS011;4351;51.422;6.794;2024-01-30T12:43:56;14.83;;;7.80;;
8626;SDS011;4351;51.422;6.794;2024-01-30T12:46:25;14.93;;;7.97;;
8626;SDS011;4351;51.422;6.794;2024-01-30T12:48:53;12.93;;;7.40;;
8626;SDS011;4351;51.422;6.794;2024-01-30T12:51:21;16.63;;;8.57;;
8626;SDS011;4351;51.422;6.794;2024-01-30T12:53:49;12.33;;;7.83;;
8626;SDS011;4351;51.422;6.794;2024-01-30T12:56:17;14.70;;;8.13;;
8626;SDS011;4351;51.422;6.794;2024-01-30T12:58:46;17.27;;;7.80;;
8626;SDS011;4351;51.422;6.794;2024-01-30T13:01:17;16.63;;;7.57;;
8626;SDS011;4351;51.422;6.794;2024-01-30T13:03:45;14.50;;;7.60;;
8626;SDS011;4351;51.422;6.794;2024-01-30T13:06:13;19.03;;;7.93;;
8626;SDS011;4351;51.422;6.794;2024-01-30T13:08:41;15.83;;;7.90;;
8626;SDS011;4351;51.422;6.794;2024-01-30T13:11:09;15.53;;;7.23;;
8626;SDS011;4351;51.422;6.794;2024-01-30T13:13:48;13.07;;;7.80;;
8626;SDS011;4351;51.422;6.794;2024-01-30T13:16:16;15.67;;;8.30;;
8626;SDS011;4351;51.422;6.794;2024-01-30T13:18:44;17.37;;;7.80;;
8626;SDS011;4351;51.422;6.794;2024-01-30T13:21:12;15.17;;;7.70;;
8626;SDS011;4351;51.422;6.794;2024-01-30T13:23:39;16.63;;;8.67;;
8626;SDS011;4351;51.422;6.794;2024-01-30T13:26:07;17.97;;;7.97;;
8626;SDS011;4351;51.422;6.794;2024-01-30T13:28:35;15.73;;;7.80;;
8626;SDS011;4351;51.422;6.794;2024-01-30T13:31:04;12.23;;;8.03;;
8626;SDS011;4351;51.422;6.794;2024-01-30T13:33:33;13.43;;;7.63;;
8626;SDS011;4351;51.422;6.794;2024-01-30T13:36:01;16.30;;;8.00;;
8626;SDS011;4351;51.422;6.794;2024-01-30T13:38:28;16.37;;;8.20;;
8626;SDS011;4351;51.422;6.794;2024-01-30T13:40:56;13.00;;;7.33;;
8626;SDS011;4351;51.422;6.794;2024-01-30T13:43:24;16.13;;;7.70;;
8626;SDS011;4351;51.422;6.794;2024-01-30T13:45:52;13.63;;;7.63;;
8626;SDS011;4351;51.422;6.794;2024-01-30T13:48:22;12.10;;;7.27;;
8626;SDS011;4351;51.422;6.794;2024-01-30T13:50:50;13.60;;;8.37;;
8626;SDS011;4351;51.422;6.794;2024-01-30T13:53:18;17.37;;;8.43;;
8626;SDS011;4351;51.422;6.794;2024-01-30T13:55:45;16.30;;;7.80;;
8626;SDS011;4351;51.422;6.794;2024-01-30T13:58:13;16.73;;;9.20;;
8626;SDS011;4351;51.422;6.794;2024-01-30T14:00:41;19.50;;;9.57;;
8626;SDS011;4351;51.422;6.794;2024-01-30T14:03:08;15.43;;;9.30;;
8626;SDS011;4351;51.422;6.794;2024-01-30T14:05:38;17.60;;;8.43;;
8626;SDS011;4351;51.422;6.794;2024-01-30T14:08:06;16.57;;;9.10;;
8626;SDS011;4351;51.422;6.794;2024-01-30T14:10:35;16.33;;;8.53;;
8626;SDS011;4351;51.422;6.794;2024-01-30T14:13:03;14.60;;;8.07;;
8626;SDS011;4351;51.422;6.794;2024-01-30T14:15:31;14.77;;;7.80;;
8626;SDS011;4351;51.422;6.794;2024-01-30T14:17:59;12.97;;;8.33;;
8626;SDS011;4351;51.422;6.794;2024-01-30T14:20:27;18.87;;;8.20;;
8626;SDS011;4351;51.422;6.794;2024-01-30T14:22:56;11.90;;;7.17;;
8626;SDS011;4351;51.422;6.794;2024-01-30T14:25:24;17.73;;;7.73;;
8626;SDS011;4351;51.422;6.794;2024-01-30T14:27:52;10.87;;;7.00;;
8626;SDS011;4351;51.422;6.794;2024-01-30T14:30:20;14.07;;;8.10;;
8626;SDS011;4351;51.422;6.794;2024-01-30T14:32:48;15.23;;;7.57;;
8626;SDS011;4351;51.422;6.794;2024-01-30T14:35:16;13.13;;;7.50;;
8626;SDS011;4351;51.422;6.794;2024-01-30T14:37:44;17.80;;;8.07;;
8626;SDS011;4351;51.422;6.794;2024-01-30T14:40:13;12.67;;;7.43;;
8626;SDS011;4351;51.422;6.794;2024-01-30T14:42:41;14.60;;;7.43;;
8626;SDS011;4351;51.422;6.794;2024-01-30T14:45:09;11.13;;;7.43;;
8626;SDS011;4351;51.422;6.794;2024-01-30T14:47:38;12.63;;;7.73;;
8626;SDS011;4351;51.422;6.794;2024-01-30T14:50:06;12.13;;;6.67;;
8626;SDS011;4351;51.422;6.794;2024-01-30T14:52:35;9.90;;;6.97;;
8626;SDS011;4351;51.422;6.794;2024-01-30T14:55:03;18.03;;;7.17;;
8626;SDS011;4351;51.422;6.794;2024-01-30T14:57:32;11.27;;;7.10;;
8626;SDS011;4351;51.422;6.794;2024-01-30T15:00:01;11.23;;;7.07;;
8626;SDS011;4351;51.422;6.794;2024-01-30T15:02:28;16.40;;;6.70;;
8626;SDS011;4351;51.422;6.794;2024-01-30T15:04:56;10.60;;;6.60;;
8626;SDS011;4351;51.422;6.794;2024-01-30T15:07:24;10.87;;;5.93;;
8626;SDS011;4351;51.422;6.794;2024-01-30T15:10:04;11.57;;;6.03;;